Time;durP1;ratioP1;P1;durP2;ratioP2;P2;SDS_P1;SDS_P2;PMS_P1;PMS_P2;Temp;Humidity;BMP_temperature;BMP_pressure;BME280_temperature;BME280_humidity;BME280_pressure;Samples;Min_cycle;Max_cycle;Signal;HPM_P1;HPM_P2
2022/11/28 00:00:58;;;;;;;1999.90;999.90;;;;;;;;;;5048425;28;20230;-77
2022/11/28 00:03:25;;;;;;;1999.90;999.90;;;;;;;;;;5068839;28;20232;-79
2022/11/28 00:05:54;;;;;;;1999.90;999.90;;;;;;;;;;5067172;28;20935;-76
2022/11/28 00:08:23;;;;;;;1999.90;999.90;;;;;;;;;;5074101;28;20228;-77
2022/11/28 00:10:51;;;;;;;1999.90;999.90;;;;;;;;;;5067503;28;20235;-78
2022/11/28 00:13:19;;;;;;;1999.90;999.90;;;;;;;;;;5068144;28;20220;-78
2022/11/28 00:15:54;;;;;;;1999.90;999.90;;;;;;;;;;5068023;28;20220;-78
2022/11/28 00:18:22;;;;;;;1999.90;999.90;;;;;;;;;;5049012;28;20766;-76
2022/11/28 00:20:49;;;;;;;1999.90;999.90;;;;;;;;;;5069654;28;20232;-77
2022/11/28 00:23:17;;;;;;;1999.90;999.90;;;;;;;;;;5067951;28;21368;-76
2022/11/28 00:25:46;;;;;;;1999.90;999.90;;;;;;;;;;5070007;28;20227;-77
2022/11/28 00:28:14;;;;;;;1999.90;999.90;;;;;;;;;;5068043;28;20224;-80
2022/11/28 00:30:42;;;;;;;1999.90;999.90;;;;;;;;;;5047797;28;20287;-77
2022/11/28 00:33:10;;;;;;;1999.90;999.90;;;;;;;;;;5067179;28;20980;-76
2022/11/28 00:35:37;;;;;;;1999.90;999.90;;;;;;;;;;5062605;28;20331;-77
2022/11/28 00:38:05;;;;;;;1999.90;999.90;;;;;;;;;;5065155;28;20247;-76
2022/11/28 00:40:33;;;;;;;1999.90;999.90;;;;;;;;;;5068706;28;20234;-77
2022/11/28 00:43:02;;;;;;;1999.90;999.90;;;;;;;;;;5065702;28;20235;-77
2022/11/28 00:45:30;;;;;;;1999.90;999.90;;;;;;;;;;5063256;28;21053;-76
2022/11/28 00:47:58;;;;;;;1999.90;999.90;;;;;;;;;;5069691;28;20299;-77
2022/11/28 00:50:26;;;;;;;1999.90;999.90;;;;;;;;;;5065850;28;20742;-76
2022/11/28 00:52:53;;;;;;;1999.90;999.90;;;;;;;;;;5048475;28;20302;-77
2022/11/28 00:55:21;;;;;;;1999.90;999.90;;;;;;;;;;5067212;28;20232;-77
2022/11/28 00:57:49;;;;;;;1999.90;999.90;;;;;;;;;;5073359;28;20609;-78
2022/11/28 01:00:19;;;;;;;1999.90;999.90;;;;;;;;;;5069995;28;20235;-77
2022/11/28 01:02:46;;;;;;;1999.90;999.90;;;;;;;;;;5071191;28;20736;-77
2022/11/28 01:05:15;;;;;;;1999.90;999.90;;;;;;;;;;5066569;28;20236;-77
2022/11/28 01:07:42;;;;;;;1999.90;999.90;;;;;;;;;;5071325;28;20224;-77
2022/11/28 01:10:11;;;;;;;1999.90;999.90;;;;;;;;;;5070848;28;20239;-77
2022/11/28 01:12:39;;;;;;;1999.90;999.90;;;;;;;;;;5056415;28;20224;-76
2022/11/28 01:15:07;;;;;;;1999.90;999.90;;;;;;;;;;5052101;28;20235;-77
2022/11/28 01:17:37;;;;;;;1999.90;999.90;;;;;;;;;;5072228;28;20237;-77
2022/11/28 01:20:07;;;;;;;1999.90;999.90;;;;;;;;;;5068009;28;20808;-76
2022/11/28 01:22:35;;;;;;;1999.90;999.90;;;;;;;;;;5063070;28;20239;-77
2022/11/28 01:25:03;;;;;;;1999.90;999.90;;;;;;;;;;5064246;28;20231;-77
2022/11/28 01:27:30;;;;;;;1999.90;999.90;;;;;;;;;;5066927;28;20335;-77
2022/11/28 01:29:58;;;;;;;1999.90;999.90;;;;;;;;;;5058542;28;20227;-76
2022/11/28 01:32:26;;;;;;;1999.90;999.90;;;;;;;;;;5066067;28;20623;-77
2022/11/28 01:34:56;;;;;;;1999.90;999.90;;;;;;;;;;5064424;28;20243;-75
2022/11/28 01:37:24;;;;;;;1999.90;999.90;;;;;;;;;;5066661;28;20240;-76
2022/11/28 01:39:52;;;;;;;1999.90;999.90;;;;;;;;;;5064308;28;20239;-75
2022/11/28 01:42:20;;;;;;;1999.90;999.90;;;;;;;;;;5096567;27;20224;-76
2022/11/28 01:45:02;;;;;;;1999.90;999.90;;;;;;;;;;5064100;28;20260;-76
2022/11/28 01:47:30;;;;;;;1999.90;999.90;;;;;;;;;;5063004;28;20274;-76
2022/11/28 01:50:00;;;;;;;1999.90;999.90;;;;;;;;;;5066560;28;20281;-75
2022/11/28 01:52:28;;;;;;;1999.90;999.90;;;;;;;;;;5066080;28;20231;-76
2022/11/28 01:54:59;;;;;;;1999.90;999.90;;;;;;;;;;5060549;28;20622;-76
2022/11/28 01:57:27;;;;;;;1999.90;999.90;;;;;;;;;;5061064;28;20266;-76
2022/11/28 01:59:57;;;;;;;1999.90;999.90;;;;;;;;;;5090824;27;20267;-76
2022/11/28 02:02:26;;;;;;;1999.90;999.90;;;;;;;;;;5045703;28;20766;-75
2022/11/28 02:04:54;;;;;;;1999.90;999.90;;;;;;;;;;5064680;28;20323;-76
2022/11/28 02:07:23;;;;;;;1999.90;999.90;;;;;;;;;;5043418;28;20228;-76
2022/11/28 02:09:51;;;;;;;1999.90;999.90;;;;;;;;;;5063439;28;20252;-76
2022/11/28 02:12:26;;;;;;;1999.90;999.90;;;;;;;;;;5060662;28;20699;-76
2022/11/28 02:15:00;;;;;;;1999.90;999.90;;;;;;;;;;5063121;28;20279;-77
2022/11/28 02:17:36;;;;;;;1999.90;999.90;;;;;;;;;;5046875;28;20688;-76
2022/11/28 02:20:25;;;;;;;1999.90;999.90;;;;;;;;;;5047820;28;20223;-76
2022/11/28 02:22:58;;;;;;;1999.90;999.90;;;;;;;;;;5030581;28;20228;-76
2022/11/28 02:25:40;;;;;;;1999.90;999.90;;;;;;;;;;5065464;28;21112;-76
2022/11/28 02:28:24;;;;;;;1999.90;999.90;;;;;;;;;;5062523;28;20294;-76
2022/11/28 02:30:55;;;;;;;1999.90;999.90;;;;;;;;;;5046479;28;21175;-77
2022/11/28 02:33:25;;;;;;;1999.90;999.90;;;;;;;;;;5082363;28;20224;-76
2022/11/28 02:35:59;;;;;;;1999.90;999.90;;;;;;;;;;5067481;28;21051;-76
2022/11/28 02:38:35;;;;;;;1999.90;999.90;;;;;;;;;;5067666;28;20246;-76
2022/11/28 02:41:06;;;;;;;1999.90;999.90;;;;;;;;;;5067627;28;20219;-76
2022/11/28 02:43:38;;;;;;;1999.90;999.90;;;;;;;;;;5064779;28;20233;-76
2022/11/28 02:46:10;;;;;;;1999.90;999.90;;;;;;;;;;5092601;27;20243;-76
2022/11/28 02:48:43;;;;;;;1999.90;999.90;;;;;;;;;;5068050;28;20228;-76
2022/11/28 02:51:14;;;;;;;1999.90;999.90;;;;;;;;;;5066977;28;21131;-76
2022/11/28 02:53:44;;;;;;;1999.90;999.90;;;;;;;;;;5093356;27;20750;-76
2022/11/28 02:56:12;;;;;;;1999.90;999.90;;;;;;;;;;5067602;28;20240;-76
2022/11/28 02:58:40;;;;;;;1999.90;999.90;;;;;;;;;;5071050;28;21154;-76
2022/11/28 03:01:15;;;;;;;1999.90;999.90;;;;;;;;;;5053513;28;20236;-77
2022/11/28 03:03:48;;;;;;;1999.90;999.90;;;;;;;;;;5066670;28;20258;-77
2022/11/28 03:06:20;;;;;;;1999.90;999.90;;;;;;;;;;5046269;28;20226;-77
2022/11/28 03:09:02;;;;;;;1999.90;999.90;;;;;;;;;;5064888;28;20311;-76
2022/11/28 03:11:36;;;;;;;1999.90;999.90;;;;;;;;;;5061042;28;20236;-77
2022/11/28 03:14:08;;;;;;;1999.90;999.90;;;;;;;;;;5063030;28;20318;-77
2022/11/28 03:16:41;;;;;;;1999.90;999.90;;;;;;;;;;5060830;28;20223;-77
2022/11/28 03:19:12;;;;;;;1999.90;999.90;;;;;;;;;;5060107;28;20322;-76
2022/11/28 03:21:42;;;;;;;1999.90;999.90;;;;;;;;;;5061403;28;20228;-76
2022/11/28 03:24:12;;;;;;;1999.90;999.90;;;;;;;;;;5065775;28;20231;-76
2022/11/28 03:26:43;;;;;;;1999.90;999.90;;;;;;;;;;5060737;28;20230;-76
2022/11/28 03:29:15;;;;;;;1999.90;999.90;;;;;;;;;;5068815;28;20282;-76
2022/11/28 03:31:45;;;;;;;1999.90;999.90;;;;;;;;;;5063777;28;20231;-76
2022/11/28 03:34:16;;;;;;;1999.90;999.90;;;;;;;;;;5062030;28;20322;-76
2022/11/28 03:36:45;;;;;;;1999.90;999.90;;;;;;;;;;5064648;28;20231;-76
2022/11/28 03:39:14;;;;;;;1999.90;999.90;;;;;;;;;;5061778;28;20239;-75
2022/11/28 03:41:44;;;;;;;1999.90;999.90;;;;;;;;;;5060727;28;20230;-75
2022/11/28 03:44:16;;;;;;;1999.90;999.90;;;;;;;;;;5063501;28;20753;-76
2022/11/28 03:46:45;;;;;;;1999.90;999.90;;;;;;;;;;5062140;28;20317;-75
2022/11/28 03:49:15;;;;;;;1999.90;999.90;;;;;;;;;;5055041;28;20236;-77
2022/11/28 03:51:46;;;;;;;1999.90;999.90;;;;;;;;;;5045758;28;20286;-75
2022/11/28 03:54:16;;;;;;;1999.90;999.90;;;;;;;;;;5066567;28;20232;-76
2022/11/28 03:56:48;;;;;;;1999.90;999.90;;;;;;;;;;5066318;28;20710;-76
2022/11/28 03:59:18;;;;;;;1999.90;999.90;;;;;;;;;;5065740;28;20247;-75
2022/11/28 04:01:50;;;;;;;1999.90;999.90;;;;;;;;;;5058642;28;20223;-76
2022/11/28 04:04:22;;;;;;;1999.90;999.90;;;;;;;;;;5062237;28;20233;-75
2022/11/28 04:06:54;;;;;;;1999.90;999.90;;;;;;;;;;5092020;27;20220;-76
2022/11/28 04:09:26;;;;;;;1999.90;999.90;;;;;;;;;;5059072;28;20305;-75
2022/11/28 04:11:55;;;;;;;1999.90;999.90;;;;;;;;;;5042846;28;20233;-74
2022/11/28 04:14:24;;;;;;;1999.90;999.90;;;;;;;;;;5061141;28;20236;-76
2022/11/28 04:16:54;;;;;;;1999.90;999.90;;;;;;;;;;5061052;28;20275;-76
2022/11/28 04:19:26;;;;;;;1999.90;999.90;;;;;;;;;;5062676;28;20243;-76
2022/11/28 04:21:59;;;;;;;1999.90;999.90;;;;;;;;;;5088560;27;20231;-75
2022/11/28 04:24:28;;;;;;;1999.90;999.90;;;;;;;;;;5060187;28;20239;-76
2022/11/28 04:26:59;;;;;;;1999.90;999.90;;;;;;;;;;5060464;28;20228;-76
2022/11/28 04:29:30;;;;;;;1999.90;999.90;;;;;;;;;;5058924;28;20224;-76
2022/11/28 04:31:59;;;;;;;1999.90;999.90;;;;;;;;;;5057366;28;20676;-75
2022/11/28 04:34:29;;;;;;;1999.90;999.90;;;;;;;;;;5057064;28;20227;-76
2022/11/28 04:36:59;;;;;;;1999.90;999.90;;;;;;;;;;5066294;28;20325;-75
2022/11/28 04:39:34;;;;;;;1999.90;999.90;;;;;;;;;;5072030;28;20288;-76
2022/11/28 04:42:06;;;;;;;1999.90;999.90;;;;;;;;;;5090127;27;20232;-76
2022/11/28 04:44:36;;;;;;;1999.90;999.90;;;;;;;;;;5063444;28;20243;-76
2022/11/28 04:47:04;;;;;;;1999.90;999.90;;;;;;;;;;5079537;28;20229;-76
2022/11/28 04:49:33;;;;;;;1999.90;999.90;;;;;;;;;;5065344;28;20263;-76
2022/11/28 04:52:04;;;;;;;1999.90;999.90;;;;;;;;;;5069249;28;20266;-76
2022/11/28 04:54:36;;;;;;;1999.90;999.90;;;;;;;;;;5075685;28;20322;-76
2022/11/28 04:57:15;;;;;;;1999.90;999.90;;;;;;;;;;5050935;28;20263;-75
2022/11/28 04:59:43;;;;;;;1999.90;999.90;;;;;;;;;;5064046;28;20614;-77
2022/11/28 05:02:13;;;;;;;1999.90;999.90;;;;;;;;;;5041079;28;20333;-76
2022/11/28 05:04:43;;;;;;;1999.90;999.90;;;;;;;;;;5045017;28;20260;-76
2022/11/28 05:07:12;;;;;;;1999.90;999.90;;;;;;;;;;5062249;28;20939;-76
2022/11/28 05:09:40;;;;;;;1999.90;999.90;;;;;;;;;;5053001;28;20418;-75
2022/11/28 05:12:08;;;;;;;1999.90;999.90;;;;;;;;;;5069593;28;20243;-76
2022/11/28 05:14:36;;;;;;;1999.90;999.90;;;;;;;;;;5070472;28;20236;-75
2022/11/28 05:17:03;;;;;;;1999.90;999.90;;;;;;;;;;5066444;28;20232;-75
2022/11/28 05:19:31;;;;;;;1999.90;999.90;;;;;;;;;;5062679;28;20247;-77
2022/11/28 05:21:59;;;;;;;1999.90;999.90;;;;;;;;;;5069039;28;20224;-76
2022/11/28 05:24:28;;;;;;;1999.90;999.90;;;;;;;;;;5064438;28;20219;-76
2022/11/28 05:27:07;;;;;;;1999.90;999.90;;;;;;;;;;5069442;28;20294;-76
2022/11/28 05:29:35;;;;;;;1999.90;999.90;;;;;;;;;;5069123;28;21061;-76
2022/11/28 05:32:03;;;;;;;1999.90;999.90;;;;;;;;;;5067382;28;20231;-76
2022/11/28 05:34:31;;;;;;;1999.90;999.90;;;;;;;;;;5061407;28;20237;-76
2022/11/28 05:36:58;;;;;;;1999.90;999.90;;;;;;;;;;5061483;28;20323;-76
2022/11/28 05:39:26;;;;;;;1999.90;999.90;;;;;;;;;;5065918;28;20740;-76
2022/11/28 05:41:55;;;;;;;1999.90;999.90;;;;;;;;;;5064708;28;20232;-75
2022/11/28 05:44:23;;;;;;;1999.90;999.90;;;;;;;;;;5063822;28;20232;-76
2022/11/28 05:46:54;;;;;;;1999.90;999.90;;;;;;;;;;5068163;28;20228;-76
2022/11/28 05:49:22;;;;;;;1999.90;999.90;;;;;;;;;;5052242;28;20228;-76
2022/11/28 05:51:50;;;;;;;1999.90;999.90;;;;;;;;;;5066227;28;20271;-76
2022/11/28 05:54:18;;;;;;;1999.90;999.90;;;;;;;;;;5071647;28;20606;-76
2022/11/28 05:56:46;;;;;;;1999.90;999.90;;;;;;;;;;5066068;28;20640;-75
2022/11/28 05:59:15;;;;;;;1999.90;999.90;;;;;;;;;;5065411;28;20238;-75
2022/11/28 06:01:43;;;;;;;1999.90;999.90;;;;;;;;;;5062938;28;20290;-75
2022/11/28 06:04:11;;;;;;;1999.90;999.90;;;;;;;;;;5066427;28;20745;-75
2022/11/28 06:06:39;;;;;;;1999.90;999.90;;;;;;;;;;5064590;28;20232;-75
2022/11/28 06:09:07;;;;;;;1999.90;999.90;;;;;;;;;;5055438;28;22478;-75
2022/11/28 06:11:35;;;;;;;1999.90;999.90;;;;;;;;;;5061349;28;20224;-75
2022/11/28 06:14:03;;;;;;;1999.90;999.90;;;;;;;;;;5067548;28;20231;-75
2022/11/28 06:16:32;;;;;;;1999.90;999.90;;;;;;;;;;5067357;28;20229;-75
2022/11/28 06:19:01;;;;;;;1999.90;999.90;;;;;;;;;;5095686;27;20978;-75
2022/11/28 06:21:29;;;;;;;1999.90;999.90;;;;;;;;;;5050776;28;20231;-75
2022/11/28 06:23:58;;;;;;;1999.90;999.90;;;;;;;;;;5062339;28;20734;-75
2022/11/28 06:26:26;;;;;;;1999.90;999.90;;;;;;;;;;5067413;28;20409;-75
2022/11/28 06:28:55;;;;;;;1999.90;999.90;;;;;;;;;;5071746;28;20228;-75
2022/11/28 06:31:24;;;;;;;1999.90;999.90;;;;;;;;;;5069406;28;20235;-75
2022/11/28 06:33:53;;;;;;;1999.90;999.90;;;;;;;;;;5071304;28;20247;-75
2022/11/28 06:36:21;;;;;;;1999.90;999.90;;;;;;;;;;5068824;28;21157;-75
2022/11/28 06:38:49;;;;;;;1999.90;999.90;;;;;;;;;;5066960;28;20236;-75
2022/11/28 06:41:17;;;;;;;1999.90;999.90;;;;;;;;;;5068257;28;22123;-74
2022/11/28 06:43:45;;;;;;;1999.90;999.90;;;;;;;;;;5095068;27;21019;-75
2022/11/28 06:46:14;;;;;;;1999.90;999.90;;;;;;;;;;5064034;28;20235;-74
2022/11/28 06:48:43;;;;;;;1999.90;999.90;;;;;;;;;;5071004;28;20262;-75
2022/11/28 06:51:13;;;;;;;1999.90;999.90;;;;;;;;;;5048253;28;20319;-75
2022/11/28 06:53:40;;;;;;;1999.90;999.90;;;;;;;;;;5053575;28;20236;-75
2022/11/28 06:56:09;;;;;;;1999.90;999.90;;;;;;;;;;5067535;28;20236;-76
2022/11/28 06:58:37;;;;;;;1999.90;999.90;;;;;;;;;;5072258;28;20282;-75
2022/11/28 07:01:06;;;;;;;1999.90;999.90;;;;;;;;;;5069020;28;20246;-75
2022/11/28 07:03:34;;;;;;;1999.90;999.90;;;;;;;;;;5053254;28;20225;-75
2022/11/28 07:06:02;;;;;;;1999.90;999.90;;;;;;;;;;5081222;28;21039;-75
2022/11/28 07:08:31;;;;;;;1999.90;999.90;;;;;;;;;;5100944;27;20315;-75
2022/11/28 07:11:06;;;;;;;1999.90;999.90;;;;;;;;;;5068525;28;20224;-75
2022/11/28 07:13:34;;;;;;;1999.90;999.90;;;;;;;;;;5070046;28;20247;-75
2022/11/28 07:16:02;;;;;;;1999.90;999.90;;;;;;;;;;5046238;28;20263;-75
2022/11/28 07:18:29;;;;;;;1999.90;999.90;;;;;;;;;;5071493;28;20231;-75
2022/11/28 07:20:57;;;;;;;1999.90;999.90;;;;;;;;;;5053286;28;20228;-76
2022/11/28 07:23:25;;;;;;;1999.90;999.90;;;;;;;;;;5101430;27;20656;-76
2022/11/28 07:25:59;;;;;;;1999.90;999.90;;;;;;;;;;5055164;28;20232;-75
2022/11/28 07:28:27;;;;;;;1999.90;999.90;;;;;;;;;;5052078;28;20677;-76
2022/11/28 07:30:59;;;;;;;1999.90;999.90;;;;;;;;;;5054407;28;20284;-75
2022/11/28 07:33:27;;;;;;;1999.90;999.90;;;;;;;;;;5068116;28;20228;-75
2022/11/28 07:35:54;;;;;;;1999.90;999.90;;;;;;;;;;5066916;28;20227;-74
2022/11/28 07:38:22;;;;;;;1999.90;999.90;;;;;;;;;;5070348;28;20227;-74
2022/11/28 07:40:50;;;;;;;1999.90;999.90;;;;;;;;;;5069248;28;20331;-75
2022/11/28 07:43:19;;;;;;;1999.90;999.90;;;;;;;;;;5069470;28;20208;-75
2022/11/28 07:45:47;;;;;;;1999.90;999.90;;;;;;;;;;5067545;28;20239;-75
2022/11/28 07:48:28;;;;;;;1999.90;999.90;;;;;;;;;;5068963;28;20247;-74
2022/11/28 07:50:55;;;;;;;1999.90;999.90;;;;;;;;;;5068109;28;20224;-75
2022/11/28 07:53:23;;;;;;;1999.90;999.90;;;;;;;;;;5069810;28;20283;-75
2022/11/28 07:55:51;;;;;;;1999.90;999.90;;;;;;;;;;5072988;28;20235;-76
2022/11/28 07:58:21;;;;;;;1999.90;999.90;;;;;;;;;;5069316;28;20228;-75
2022/11/28 08:00:48;;;;;;;1999.90;999.90;;;;;;;;;;5067430;28;20247;-75
2022/11/28 08:03:16;;;;;;;1999.90;999.90;;;;;;;;;;5052375;28;20243;-75
2022/11/28 08:05:48;;;;;;;1999.90;999.90;;;;;;;;;;5069140;28;20239;-75
2022/11/28 08:08:16;;;;;;;1999.90;999.90;;;;;;;;;;5069472;28;20232;-76
2022/11/28 08:10:44;;;;;;;1999.90;999.90;;;;;;;;;;5066369;28;20238;-75
2022/11/28 08:13:13;;;;;;;1999.90;999.90;;;;;;;;;;5098563;27;20277;-75
2022/11/28 08:15:42;;;;;;;1999.90;999.90;;;;;;;;;;5073562;28;20239;-75
2022/11/28 08:18:10;;;;;;;1999.90;999.90;;;;;;;;;;5072214;28;20238;-75
2022/11/28 08:20:37;;;;;;;1999.90;999.90;;;;;;;;;;5068391;28;21124;-75
2022/11/28 08:23:05;;;;;;;1999.90;999.90;;;;;;;;;;5071083;28;20351;-76
2022/11/28 08:25:33;;;;;;;1999.90;999.90;;;;;;;;;;5072067;28;20267;-76
2022/11/28 08:28:01;;;;;;;1999.90;999.90;;;;;;;;;;5073954;28;20231;-75
2022/11/28 08:30:29;;;;;;;1999.90;999.90;;;;;;;;;;5101817;27;20239;-75
2022/11/28 08:32:58;;;;;;;1999.90;999.90;;;;;;;;;;5073889;28;20228;-75
2022/11/28 08:35:26;;;;;;;1999.90;999.90;;;;;;;;;;5072987;28;20413;-75
2022/11/28 08:37:54;;;;;;;1999.90;999.90;;;;;;;;;;5072728;28;20231;-75
2022/11/28 08:40:28;;;;;;;1999.90;999.90;;;;;;;;;;5077439;28;20226;-75
2022/11/28 08:42:58;;;;;;;1999.90;999.90;;;;;;;;;;5060138;28;20230;-75
2022/11/28 08:45:26;;;;;;;1999.90;999.90;;;;;;;;;;5078231;28;20434;-75
2022/11/28 08:47:53;;;;;;;1999.90;999.90;;;;;;;;;;5077438;28;20490;-76
2022/11/28 08:50:23;;;;;;;1999.90;999.90;;;;;;;;;;5104812;27;20398;-75
2022/11/28 08:52:50;;;;;;;1999.90;999.90;;;;;;;;;;5071092;28;20370;-74
2022/11/28 08:55:18;;;;;;;1999.90;999.90;;;;;;;;;;5085940;28;20381;-75
2022/11/28 08:57:58;;;;;;;1999.90;999.90;;;;;;;;;;5080724;28;20387;-75
2022/11/28 09:00:26;;;;;;;1999.90;999.90;;;;;;;;;;5082648;28;21098;-76
2022/11/28 09:02:54;;;;;;;1999.90;999.90;;;;;;;;;;5108089;27;20391;-75
2022/11/28 09:05:23;;;;;;;1999.90;999.90;;;;;;;;;;5079113;28;21273;-75
2022/11/28 09:07:53;;;;;;;1999.90;999.90;;;;;;;;;;5078683;28;20292;-75
2022/11/28 09:10:22;;;;;;;1999.90;999.90;;;;;;;;;;5071581;28;20430;-74
2022/11/28 09:12:50;;;;;;;1999.90;999.90;;;;;;;;;;5071612;28;20398;-75
2022/11/28 09:15:18;;;;;;;1999.90;999.90;;;;;;;;;;5071471;28;20375;-75
2022/11/28 09:17:46;;;;;;;1999.90;999.90;;;;;;;;;;5066273;28;20404;-75
2022/11/28 09:20:15;;;;;;;1999.90;999.90;;;;;;;;;;5071556;28;20378;-74
2022/11/28 09:22:46;;;;;;;1999.90;999.90;;;;;;;;;;5069342;28;20351;-74
2022/11/28 09:25:14;;;;;;;1999.90;999.90;;;;;;;;;;5068124;28;20399;-75
2022/11/28 09:27:42;;;;;;;1999.90;999.90;;;;;;;;;;5078165;28;20412;-74
2022/11/28 09:30:10;;;;;;;1999.90;999.90;;;;;;;;;;5070802;28;20399;-75
2022/11/28 09:32:38;;;;;;;1999.90;999.90;;;;;;;;;;5067452;28;20391;-73
2022/11/28 09:35:06;;;;;;;1999.90;999.90;;;;;;;;;;5067217;28;20896;-75
2022/11/28 09:37:34;;;;;;;1999.90;999.90;;;;;;;;;;5069515;28;20473;-75
2022/11/28 09:40:03;;;;;;;1999.90;999.90;;;;;;;;;;5070612;28;20411;-75
2022/11/28 09:42:42;;;;;;;1999.90;999.90;;;;;;;;;;5097676;27;21304;-75
2022/11/28 09:45:12;;;;;;;1999.90;999.90;;;;;;;;;;5066707;28;20399;-74
2022/11/28 09:47:42;;;;;;;1999.90;999.90;;;;;;;;;;5065377;28;20387;-74
2022/11/28 09:50:14;;;;;;;1999.90;999.90;;;;;;;;;;5068530;28;21295;-75
2022/11/28 09:52:45;;;;;;;1999.90;999.90;;;;;;;;;;5067931;28;21085;-74
2022/11/28 09:55:16;;;;;;;1999.90;999.90;;;;;;;;;;5068280;28;20402;-75
2022/11/28 09:57:46;;;;;;;1999.90;999.90;;;;;;;;;;5067290;28;20393;-75
2022/11/28 10:00:26;;;;;;;1999.90;999.90;;;;;;;;;;5069640;28;20417;-75
2022/11/28 10:03:13;;;;;;;1999.90;999.90;;;;;;;;;;5065653;28;20420;-75
2022/11/28 10:05:43;;;;;;;1999.90;999.90;;;;;;;;;;5064152;28;21543;-75
2022/11/28 10:08:21;;;;;;;1999.90;999.90;;;;;;;;;;5067806;28;20445;-75
2022/11/28 10:10:55;;;;;;;1999.90;999.90;;;;;;;;;;5070702;28;20399;-75
2022/11/28 10:13:27;;;;;;;1999.90;999.90;;;;;;;;;;5070570;28;20901;-73
2022/11/28 10:16:20;;;;;;;1999.90;999.90;;;;;;;;;;5070388;28;20466;-74
2022/11/28 10:18:50;;;;;;;1999.90;999.90;;;;;;;;;;5067688;28;20396;-73
2022/11/28 10:21:22;;;;;;;1999.90;999.90;;;;;;;;;;5084739;28;20489;-75
2022/11/28 10:23:52;;;;;;;1999.90;999.90;;;;;;;;;;5068573;28;21938;-72
2022/11/28 10:26:25;;;;;;;1999.90;999.90;;;;;;;;;;5065379;28;20404;-75
2022/11/28 10:28:53;;;;;;;1999.90;999.90;;;;;;;;;;5067017;28;20403;-73
2022/11/28 10:31:27;;;;;;;1999.90;999.90;;;;;;;;;;5067308;28;20422;-74
2022/11/28 10:33:59;;;;;;;1999.90;999.90;;;;;;;;;;5063741;28;20999;-74
2022/11/28 10:36:28;;;;;;;1999.90;999.90;;;;;;;;;;5066674;28;20414;-73
2022/11/28 10:38:56;;;;;;;1999.90;999.90;;;;;;;;;;5066108;28;20431;-73
2022/11/28 10:41:32;;;;;;;1999.90;999.90;;;;;;;;;;5065960;28;20411;-74
2022/11/28 10:44:02;;;;;;;1999.90;999.90;;;;;;;;;;5065385;28;20403;-73
2022/11/28 10:46:39;;;;;;;1999.90;999.90;;;;;;;;;;5063200;28;20920;-73
2022/11/28 10:49:16;;;;;;;1999.90;999.90;;;;;;;;;;5060877;28;20398;-74
2022/11/28 10:51:48;;;;;;;1999.90;999.90;;;;;;;;;;5063344;28;20438;-74
2022/11/28 10:54:19;;;;;;;1999.90;999.90;;;;;;;;;;5066319;28;20402;-74
2022/11/28 10:56:51;;;;;;;1999.90;999.90;;;;;;;;;;5050643;28;20501;-74
2022/11/28 10:59:22;;;;;;;1999.90;999.90;;;;;;;;;;5070249;28;20766;-76
2022/11/28 11:01:51;;;;;;;1999.90;999.90;;;;;;;;;;5052967;28;20392;-74
2022/11/28 11:04:20;;;;;;;1999.90;999.90;;;;;;;;;;5066454;28;20395;-74
2022/11/28 11:06:57;;;;;;;1999.90;999.90;;;;;;;;;;5049835;28;20408;-74
2022/11/28 11:09:37;;;;;;;1999.90;999.90;;;;;;;;;;5071444;28;20477;-75
2022/11/28 11:12:07;;;;;;;1999.90;999.90;;;;;;;;;;5069570;28;20393;-74
2022/11/28 11:14:36;;;;;;;1999.90;999.90;;;;;;;;;;5066680;28;20425;-75
2022/11/28 11:17:04;;;;;;;1999.90;999.90;;;;;;;;;;5050345;28;20370;-74
2022/11/28 11:19:33;;;;;;;1999.90;999.90;;;;;;;;;;5064878;28;20395;-75
2022/11/28 11:22:02;;;;;;;1999.90;999.90;;;;;;;;;;5049359;28;20395;-77
2022/11/28 11:24:30;;;;;;;1999.90;999.90;;;;;;;;;;5094558;27;20387;-76
2022/11/28 11:27:03;;;;;;;1999.90;999.90;;;;;;;;;;5067896;28;20476;-76
2022/11/28 11:29:35;;;;;;;1999.90;999.90;;;;;;;;;;5065217;28;20402;-76
2022/11/28 11:32:05;;;;;;;1999.90;999.90;;;;;;;;;;5063609;28;20231;-76
2022/11/28 11:34:36;;;;;;;1999.90;999.90;;;;;;;;;;5076931;28;21512;-76
2022/11/28 11:37:21;;;;;;;1999.90;999.90;;;;;;;;;;5069996;28;20255;-74
2022/11/28 11:39:50;;;;;;;1999.90;999.90;;;;;;;;;;5068513;28;20220;-75
2022/11/28 11:42:21;;;;;;;1999.90;999.90;;;;;;;;;;5067277;28;20240;-76
2022/11/28 11:44:51;;;;;;;1999.90;999.90;;;;;;;;;;5051120;28;21009;-75
2022/11/28 11:47:19;;;;;;;1999.90;999.90;;;;;;;;;;5066039;28;20228;-76
2022/11/28 11:49:47;;;;;;;1999.90;999.90;;;;;;;;;;5061469;28;20730;-75
2022/11/28 11:52:18;;;;;;;1999.90;999.90;;;;;;;;;;5066629;28;20231;-75
2022/11/28 11:54:55;;;;;;;1999.90;999.90;;;;;;;;;;5099515;27;20236;-75
2022/11/28 11:57:24;;;;;;;1999.90;999.90;;;;;;;;;;5069995;28;20234;-75
2022/11/28 12:00:03;;;;;;;1999.90;999.90;;;;;;;;;;5064840;28;20318;-75
2022/11/28 12:02:40;;;;;;;1999.90;999.90;;;;;;;;;;5064993;28;20297;-76
2022/11/28 12:05:11;;;;;;;1999.90;999.90;;;;;;;;;;5050029;28;20243;-75
2022/11/28 12:07:48;;;;;;;1999.90;999.90;;;;;;;;;;5069809;28;20223;-75
2022/11/28 12:10:17;;;;;;;1999.90;999.90;;;;;;;;;;5053703;28;20223;-75
2022/11/28 12:12:45;;;;;;;1999.90;999.90;;;;;;;;;;5067878;28;20486;-75
2022/11/28 12:15:19;;;;;;;1999.90;999.90;;;;;;;;;;5067048;28;20413;-75
2022/11/28 12:17:53;;;;;;;1999.90;999.90;;;;;;;;;;5068401;28;20631;-74
2022/11/28 12:20:33;;;;;;;1999.90;999.90;;;;;;;;;;5099373;27;20239;-75
2022/11/28 12:23:06;;;;;;;1999.90;999.90;;;;;;;;;;5065548;28;20326;-75
2022/11/28 12:25:37;;;;;;;1999.90;999.90;;;;;;;;;;5094364;27;20291;-76
2022/11/28 12:28:10;;;;;;;1999.90;999.90;;;;;;;;;;5081992;28;20246;-75
2022/11/28 12:30:46;;;;;;;1999.90;999.90;;;;;;;;;;5065931;28;20699;-74
2022/11/28 12:33:20;;;;;;;1999.90;999.90;;;;;;;;;;5067341;28;20231;-75
2022/11/28 12:35:53;;;;;;;1999.90;999.90;;;;;;;;;;5048993;28;20320;-75
2022/11/28 12:38:30;;;;;;;1999.90;999.90;;;;;;;;;;5084190;28;20227;-74
2022/11/28 12:41:06;;;;;;;1999.90;999.90;;;;;;;;;;5066304;28;20736;-75
2022/11/28 12:43:41;;;;;;;1999.90;999.90;;;;;;;;;;5063577;28;20235;-75
2022/11/28 12:46:14;;;;;;;1999.90;999.90;;;;;;;;;;5064863;28;20333;-75
2022/11/28 12:48:48;;;;;;;1999.90;999.90;;;;;;;;;;5063696;28;20228;-75
2022/11/28 12:51:26;;;;;;;1999.90;999.90;;;;;;;;;;5063014;28;20490;-76
2022/11/28 12:54:01;;;;;;;1999.90;999.90;;;;;;;;;;5044097;28;20409;-77
2022/11/28 12:56:34;;;;;;;1999.90;999.90;;;;;;;;;;5064709;28;20472;-75
2022/11/28 12:59:05;;;;;;;1999.90;999.90;;;;;;;;;;5067704;28;20602;-75
2022/11/28 13:01:44;;;;;;;1999.90;999.90;;;;;;;;;;5067241;28;21098;-76
2022/11/28 13:04:17;;;;;;;1999.90;999.90;;;;;;;;;;5069251;28;20890;-74
2022/11/28 13:06:52;;;;;;;1999.90;999.90;;;;;;;;;;5065804;28;21336;-73
2022/11/28 13:09:30;;;;;;;1999.90;999.90;;;;;;;;;;5052285;28;20443;-75
2022/11/28 13:12:05;;;;;;;1999.90;999.90;;;;;;;;;;5074015;28;20516;-71
2022/11/28 13:14:38;;;;;;;1999.90;999.90;;;;;;;;;;5049590;28;20407;-72
2022/11/28 13:17:13;;;;;;;1999.90;999.90;;;;;;;;;;5048112;28;20461;-72
2022/11/28 13:19:48;;;;;;;1999.90;999.90;;;;;;;;;;5062735;28;20422;-72
2022/11/28 13:22:19;;;;;;;1999.90;999.90;;;;;;;;;;5042977;28;21153;-72
2022/11/28 13:24:49;;;;;;;1999.90;999.90;;;;;;;;;;5063607;28;20505;-74
2022/11/28 13:27:21;;;;;;;1999.90;999.90;;;;;;;;;;5065021;28;20848;-70
2022/11/28 13:29:53;;;;;;;1999.90;999.90;;;;;;;;;;5048812;28;20421;-72
2022/11/28 13:32:26;;;;;;;1999.90;999.90;;;;;;;;;;5063740;28;20409;-75
2022/11/28 13:34:54;;;;;;;1999.90;999.90;;;;;;;;;;5062635;28;20395;-73
2022/11/28 13:37:26;;;;;;;1999.90;999.90;;;;;;;;;;5064365;28;20402;-73
2022/11/28 13:40:18;;;;;;;1999.90;999.90;;;;;;;;;;5058337;28;20398;-73
2022/11/28 13:42:50;;;;;;;1999.90;999.90;;;;;;;;;;5056934;28;20492;-72
2022/11/28 13:45:36;;;;;;;1999.90;999.90;;;;;;;;;;5060503;28;20413;-72
2022/11/28 13:48:24;;;;;;;1999.90;999.90;;;;;;;;;;5061303;28;20426;-72
2022/11/28 13:51:18;;;;;;;1999.90;999.90;;;;;;;;;;5060873;28;20479;-72
2022/11/28 13:54:08;;;;;;;1999.90;999.90;;;;;;;;;;5056067;28;20401;-71
2022/11/28 13:56:38;;;;;;;1999.90;999.90;;;;;;;;;;5055561;28;20447;-71
2022/11/28 13:59:14;;;;;;;1999.90;999.90;;;;;;;;;;5058887;28;20387;-71
2022/11/28 14:01:43;;;;;;;1999.90;999.90;;;;;;;;;;5055020;28;20417;-72